createdAt,value
2018-12-04T00:00:36.628Z,11.32
2018-12-04T00:01:36.793Z,11.31
2018-12-04T00:02:36.913Z,11.29
2018-12-04T00:03:37.093Z,11.26
2018-12-04T00:04:37.200Z,11.23
2018-12-04T00:05:37.333Z,11.25
2018-12-04T00:06:37.449Z,11.24
2018-12-04T00:07:37.584Z,11.23
2018-12-04T00:08:37.681Z,11.24
2018-12-04T00:09:37.666Z,11.25
2018-12-04T00:10:38.162Z,11.27
2018-12-04T00:11:38.294Z,11.27
2018-12-04T00:12:38.405Z,11.25
2018-12-04T00:13:38.513Z,11.26
2018-12-04T00:14:38.626Z,11.25
2018-12-04T00:15:38.732Z,11.28
2018-12-04T00:16:39.095Z,11.29
2018-12-04T00:17:39.234Z,11.29
2018-12-04T00:18:39.239Z,11.30
2018-12-04T00:19:39.291Z,11.32
2018-12-04T00:20:39.422Z,11.33
2018-12-04T00:21:39.502Z,11.35
2018-12-04T00:22:39.347Z,11.34
2018-12-04T00:23:39.898Z,11.35
2018-12-04T00:24:39.803Z,11.38
2018-12-04T00:25:40.232Z,11.37
2018-12-04T00:26:40.559Z,11.39
2018-12-04T00:27:40.854Z,11.39
2018-12-04T00:28:41.128Z,11.41
2018-12-04T00:29:41.465Z,11.41
2018-12-04T00:30:41.751Z,11.43
2018-12-04T00:31:42.030Z,11.41
2018-12-04T00:32:42.545Z,11.41
2018-12-04T00:33:42.488Z,11.41
2018-12-04T00:34:42.842Z,11.43
2018-12-04T00:35:43.137Z,11.42
2018-12-04T00:36:43.436Z,11.42
2018-12-04T00:37:43.916Z,11.42
2018-12-04T00:38:44.220Z,11.42
2018-12-04T00:39:44.575Z,11.41
2018-12-04T00:40:45.070Z,11.40
2018-12-04T00:41:45.037Z,11.42
2018-12-04T00:42:45.487Z,11.42
2018-12-04T00:43:45.811Z,11.43
2018-12-04T00:44:46.101Z,11.41
2018-12-04T00:45:46.393Z,11.40
2018-12-04T00:46:46.670Z,11.37
2018-12-04T00:47:47.021Z,11.37
2018-12-04T00:48:47.292Z,11.37
2018-12-04T00:49:47.639Z,11.36
2018-12-04T00:50:47.983Z,11.35
2018-12-04T00:51:48.647Z,11.35
2018-12-04T00:52:48.766Z,11.35
2018-12-04T00:53:48.902Z,11.32
2018-12-04T00:54:49.092Z,11.31
2018-12-04T00:55:49.261Z,11.30
2018-12-04T00:56:49.425Z,11.30
2018-12-04T00:57:49.596Z,11.30
2018-12-04T00:58:49.748Z,11.30
2018-12-04T00:59:49.909Z,11.28
2018-12-04T01:00:50.083Z,11.28
2018-12-04T01:01:50.287Z,11.27
2018-12-04T01:02:50.456Z,11.26
2018-12-04T01:04:50.658Z,11.24
2018-12-04T01:05:50.792Z,11.22
2018-12-04T01:06:50.987Z,11.22
2018-12-04T01:07:51.105Z,11.18
2018-12-04T01:08:51.248Z,11.18
2018-12-04T01:09:51.333Z,11.17
2018-12-04T01:10:51.416Z,11.12
2018-12-04T01:11:51.551Z,11.11
2018-12-04T01:12:51.640Z,11.10
2018-12-04T01:13:51.786Z,11.08
2018-12-04T01:14:51.954Z,11.06
2018-12-04T01:15:52.086Z,11.06
2018-12-04T01:16:52.229Z,11.05
2018-12-04T01:17:52.381Z,11.04
2018-12-04T01:18:52.478Z,11.04
2018-12-04T01:19:52.562Z,11.02
2018-12-04T01:20:52.661Z,11.02
2018-12-04T01:21:52.750Z,10.99
2018-12-04T01:22:52.857Z,10.99
2018-12-04T01:23:52.942Z,10.97
2018-12-04T01:24:53.041Z,10.95
2018-12-04T01:25:53.127Z,10.95
2018-12-04T01:26:53.227Z,10.92
2018-12-04T01:27:53.323Z,10.92
2018-12-04T01:28:53.445Z,10.92
2018-12-04T01:29:53.554Z,10.91
2018-12-04T01:30:53.665Z,10.90
2018-12-04T01:31:53.764Z,10.88
2018-12-04T01:32:53.872Z,10.88
2018-12-04T01:33:53.896Z,10.90
2018-12-04T01:34:53.895Z,10.90
2018-12-04T01:35:54.011Z,10.90
2018-12-04T01:36:54.061Z,10.92
2018-12-04T01:37:54.077Z,10.94
2018-12-04T01:38:54.447Z,10.95
2018-12-04T01:39:54.720Z,10.95
2018-12-04T01:40:55.024Z,10.96
2018-12-04T01:41:55.468Z,10.97
2018-12-04T01:42:55.777Z,10.98
2018-12-04T01:43:56.107Z,10.97
2018-12-04T01:44:56.474Z,10.97
2018-12-04T01:45:56.680Z,10.99
2018-12-04T01:46:57.053Z,10.97
2018-12-04T01:47:57.363Z,10.96
2018-12-04T01:48:57.707Z,10.97
2018-12-04T01:49:58.198Z,10.97
2018-12-04T01:50:58.468Z,10.98
2018-12-04T01:51:58.729Z,10.97
2018-12-04T01:52:59.010Z,10.98
2018-12-04T01:53:59.265Z,10.99
2018-12-04T01:54:59.601Z,11.00
2018-12-04T01:55:59.874Z,11.01
2018-12-04T01:57:00.151Z,10.99
2018-12-04T01:58:00.621Z,11.02
2018-12-04T01:59:01.047Z,11.04
2018-12-04T02:00:01.601Z,11.05
2018-12-04T02:01:01.748Z,11.05
2018-12-04T02:02:01.519Z,11.06
2018-12-04T02:03:02.117Z,11.07
2018-12-04T02:04:02.504Z,11.09
2018-12-04T02:05:02.500Z,11.08
2018-12-04T02:06:02.570Z,11.06
2018-12-04T02:07:02.641Z,11.08
2018-12-04T02:08:02.706Z,11.09
2018-12-04T02:09:02.797Z,11.09
2018-12-04T02:10:02.888Z,11.09
2018-12-04T02:11:02.984Z,11.10
2018-12-04T02:12:03.038Z,11.08
2018-12-04T02:13:03.124Z,11.05
2018-12-04T02:14:02.981Z,11.03
2018-12-04T02:15:03.513Z,11.00
2018-12-04T02:16:03.729Z,10.95
2018-12-04T02:17:03.821Z,10.96
2018-12-04T02:18:03.955Z,10.94
2018-12-04T02:19:04.088Z,10.87
2018-12-04T02:20:04.220Z,10.86
2018-12-04T02:21:05.281Z,10.86
2018-12-04T02:22:04.190Z,10.84
2018-12-04T02:23:04.795Z,10.81
2018-12-04T02:24:04.890Z,10.78
2018-12-04T02:25:05.040Z,10.77
2018-12-04T02:26:05.098Z,10.73
2018-12-04T02:27:05.219Z,10.75
2018-12-04T02:28:05.093Z,10.73
2018-12-04T02:29:05.727Z,10.72
2018-12-04T02:30:05.927Z,10.71
2018-12-04T02:31:06.102Z,10.69
2018-12-04T02:32:06.275Z,10.68
2018-12-04T02:33:06.413Z,10.66
2018-12-04T02:34:06.562Z,10.65
2018-12-04T02:35:06.650Z,10.63
2018-12-04T02:36:06.750Z,10.62
2018-12-04T02:37:06.873Z,10.60
2018-12-04T02:38:06.900Z,10.60
2018-12-04T02:39:06.995Z,10.59
2018-12-04T02:40:07.102Z,10.57
2018-12-04T02:41:07.242Z,10.53
2018-12-04T02:42:07.062Z,10.50
2018-12-04T02:43:07.520Z,10.53
2018-12-04T02:44:08.118Z,10.53
2018-12-04T02:45:07.993Z,10.52
2018-12-04T02:46:08.278Z,10.51
2018-12-04T02:47:08.593Z,10.49
2018-12-04T02:48:09.320Z,10.50
2018-12-04T02:49:09.425Z,10.48
2018-12-04T02:50:09.418Z,10.45
2018-12-04T02:51:09.680Z,10.43
2018-12-04T02:52:10.048Z,10.43
2018-12-04T02:53:10.434Z,10.43
2018-12-04T02:54:10.710Z,10.42
2018-12-04T02:55:11.294Z,10.43
2018-12-04T02:56:11.070Z,10.43
2018-12-04T02:57:11.368Z,10.46
2018-12-04T02:58:11.641Z,10.45
2018-12-04T02:59:11.960Z,10.44
2018-12-04T03:00:12.264Z,10.42
2018-12-04T03:01:12.534Z,10.42
2018-12-04T03:02:13.032Z,10.42
2018-12-04T03:03:12.801Z,10.42
2018-12-04T03:04:13.130Z,10.43
2018-12-04T03:05:13.599Z,10.40
2018-12-04T03:06:13.885Z,10.39
2018-12-04T03:08:14.185Z,10.39
2018-12-04T03:09:14.470Z,10.37
2018-12-04T03:10:15.004Z,10.34
2018-12-04T03:11:14.805Z,10.30
2018-12-04T03:12:15.303Z,10.28
2018-12-04T03:13:15.111Z,10.25
2018-12-04T03:14:15.713Z,10.24
2018-12-04T03:15:15.833Z,10.26
2018-12-04T03:16:15.826Z,10.26
2018-12-04T03:17:16.085Z,10.24
2018-12-04T03:18:16.376Z,10.26
2018-12-04T03:19:16.649Z,10.26
2018-12-04T03:20:16.964Z,10.26
2018-12-04T03:21:17.279Z,10.25
2018-12-04T03:22:17.690Z,10.25
2018-12-04T03:23:18.088Z,10.25
2018-12-04T03:24:18.688Z,10.26
2018-12-04T03:25:18.769Z,10.28
2018-12-04T03:26:18.808Z,10.29
2018-12-04T03:27:18.927Z,10.31
2018-12-04T03:28:19.108Z,10.34
2018-12-04T03:29:19.315Z,10.36
2018-12-04T03:31:19.469Z,10.38
2018-12-04T03:32:19.629Z,10.41
2018-12-04T03:33:19.754Z,10.42
2018-12-04T03:34:20.218Z,10.43
2018-12-04T03:35:20.404Z,10.44
2018-12-04T03:36:20.586Z,10.45
2018-12-04T03:37:20.717Z,10.46
2018-12-04T03:38:20.834Z,10.45
2018-12-04T03:39:20.959Z,10.47
2018-12-04T03:40:21.110Z,10.46
2018-12-04T03:41:21.160Z,10.45
2018-12-04T03:42:21.232Z,10.43
2018-12-04T03:43:21.271Z,10.43
2018-12-04T03:44:21.351Z,10.42
2018-12-04T03:45:21.456Z,10.42
2018-12-04T03:46:21.552Z,10.42
2018-12-04T03:47:21.681Z,10.42
2018-12-04T03:48:21.814Z,10.41
2018-12-04T03:49:21.985Z,10.40
2018-12-04T03:50:22.127Z,10.38
2018-12-04T03:51:22.223Z,10.35
2018-12-04T03:52:22.302Z,10.31
2018-12-04T03:53:22.400Z,10.27
2018-12-04T03:54:22.543Z,10.25
2018-12-04T03:55:22.646Z,10.22
2018-12-04T03:56:22.702Z,10.21
2018-12-04T03:57:22.779Z,10.17
2018-12-04T03:58:22.840Z,10.15
2018-12-04T03:59:22.881Z,10.13
2018-12-04T04:00:22.959Z,10.10
2018-12-04T04:01:23.033Z,10.08
2018-12-04T04:02:22.862Z,10.07
2018-12-04T04:03:23.422Z,10.04
2018-12-04T04:04:23.503Z,10.03
2018-12-04T04:05:23.563Z,10.00
2018-12-04T04:06:23.655Z,9.99
2018-12-04T04:07:23.722Z,9.98
2018-12-04T04:08:23.820Z,9.94
2018-12-04T04:09:23.815Z,9.91
2018-12-04T04:10:23.946Z,9.92
2018-12-04T04:11:24.003Z,9.90
2018-12-04T04:12:23.930Z,9.89
2018-12-04T04:13:24.603Z,9.89
2018-12-04T04:14:24.378Z,9.89
2018-12-04T04:15:24.648Z,9.85
2018-12-04T04:16:25.242Z,9.83
2018-12-04T04:17:25.043Z,9.80
2018-12-04T04:18:25.477Z,9.80
2018-12-04T04:19:25.762Z,9.78
2018-12-04T04:20:26.230Z,9.77
2018-12-04T04:21:26.315Z,9.75
2018-12-04T04:22:26.609Z,9.74
2018-12-04T04:23:26.862Z,9.73
2018-12-04T04:24:27.128Z,9.72
2018-12-04T04:25:27.394Z,9.72
2018-12-04T04:26:27.662Z,9.72
2018-12-04T04:27:27.940Z,9.72
2018-12-04T04:28:28.269Z,9.70
2018-12-04T04:29:28.751Z,9.70
2018-12-04T04:30:29.142Z,9.69
2018-12-04T04:31:29.411Z,9.69
2018-12-04T04:32:29.825Z,9.67
2018-12-04T04:33:30.099Z,9.64
2018-12-04T04:34:30.459Z,9.64
2018-12-04T04:35:30.775Z,9.61
2018-12-04T04:36:31.052Z,9.62
2018-12-04T04:37:31.335Z,9.60
2018-12-04T04:38:31.584Z,9.58
2018-12-04T04:39:31.856Z,9.59
2018-12-04T04:40:32.155Z,9.61
2018-12-04T04:41:32.663Z,9.63
2018-12-04T04:42:32.429Z,9.62
2018-12-04T04:43:33.019Z,9.61
2018-12-04T04:44:32.780Z,9.58
2018-12-04T04:45:33.171Z,9.60
2018-12-04T04:46:33.760Z,9.61
2018-12-04T04:47:33.828Z,9.62
2018-12-04T04:48:34.094Z,9.59
2018-12-04T04:49:34.242Z,9.58
2018-12-04T04:50:34.404Z,9.56
2018-12-04T04:51:34.531Z,9.54
2018-12-04T04:52:34.731Z,9.53
2018-12-04T04:53:34.859Z,9.52
2018-12-04T04:54:35.001Z,9.50
2018-12-04T04:55:35.154Z,9.49
2018-12-04T04:56:35.314Z,9.48
2018-12-04T04:57:35.480Z,9.46
2018-12-04T04:58:35.687Z,9.43
2018-12-04T04:59:35.817Z,9.41
2018-12-04T05:00:35.951Z,9.39
2018-12-04T05:01:36.034Z,9.36
2018-12-04T05:02:36.140Z,9.35
2018-12-04T05:03:36.224Z,9.31
2018-12-04T05:04:36.267Z,9.28
2018-12-04T05:05:36.343Z,9.27
2018-12-04T05:06:36.456Z,9.23
2018-12-04T05:07:36.614Z,9.23
2018-12-04T05:08:36.781Z,9.23
2018-12-04T05:10:36.886Z,9.23
2018-12-04T05:11:36.997Z,9.18
2018-12-04T05:12:37.089Z,9.16
2018-12-04T05:13:36.881Z,9.14
2018-12-04T05:14:37.472Z,9.12
2018-12-04T05:15:37.597Z,9.13
2018-12-04T05:16:37.707Z,9.11
2018-12-04T05:17:37.817Z,9.12
2018-12-04T05:18:37.930Z,9.11
2018-12-04T05:19:38.031Z,9.09
2018-12-04T05:20:38.124Z,9.05
2018-12-04T05:21:38.207Z,9.02
2018-12-04T05:22:38.294Z,8.99
2018-12-04T05:23:38.592Z,8.95
2018-12-04T05:24:41.543Z,8.91
2018-12-04T05:25:38.939Z,8.88
2018-12-04T05:26:39.537Z,8.84
2018-12-04T05:27:39.323Z,8.84
2018-12-04T05:28:39.611Z,8.83
2018-12-04T05:30:40.038Z,8.82
2018-12-04T05:31:40.361Z,8.84
2018-12-04T05:32:40.643Z,8.85
2018-12-04T05:33:40.920Z,8.87
2018-12-04T05:34:41.179Z,8.86
2018-12-04T05:35:41.480Z,8.86
2018-12-04T05:36:41.892Z,8.85
2018-12-04T05:37:42.190Z,8.85
2018-12-04T05:38:42.482Z,8.86
2018-12-04T05:39:43.079Z,8.86
2018-12-04T05:40:42.869Z,8.86
2018-12-04T05:41:43.177Z,8.88
2018-12-04T05:42:43.428Z,8.89
2018-12-04T05:43:43.848Z,8.87
2018-12-04T05:44:44.189Z,8.87
2018-12-04T05:45:44.497Z,8.87
2018-12-04T05:46:44.762Z,8.88
2018-12-04T05:47:45.035Z,8.88
2018-12-04T05:48:45.313Z,8.88
2018-12-04T05:49:45.730Z,8.87
2018-12-04T05:50:46.222Z,8.89
2018-12-04T05:51:46.109Z,8.88
2018-12-04T05:52:46.405Z,8.89
2018-12-04T05:53:46.700Z,8.88
2018-12-04T05:54:46.505Z,8.86
2018-12-04T05:55:46.784Z,8.87
2018-12-04T05:56:47.293Z,8.88
2018-12-04T05:57:47.181Z,8.88
2018-12-04T05:58:47.449Z,8.88
2018-12-04T05:59:47.757Z,8.89
2018-12-04T06:00:48.224Z,8.89
2018-12-04T06:01:48.794Z,8.88
2018-12-04T06:02:48.888Z,8.89
2018-12-04T06:03:49.022Z,8.89
2018-12-04T06:04:49.147Z,8.91
2018-12-04T06:05:49.295Z,8.92
2018-12-04T06:06:49.408Z,8.91
2018-12-04T06:07:49.563Z,8.92
2018-12-04T06:08:49.691Z,8.93
2018-12-04T06:09:49.884Z,8.90
2018-12-04T06:10:50.019Z,8.90
2018-12-04T06:11:50.210Z,8.91
2018-12-04T06:12:50.364Z,8.89
2018-12-04T06:13:50.544Z,8.90
2018-12-04T06:14:50.678Z,8.91
2018-12-04T06:15:50.837Z,8.90
2018-12-04T06:16:50.979Z,8.89
2018-12-04T06:17:51.101Z,8.91
2018-12-04T06:18:51.388Z,8.91
2018-12-04T06:19:51.505Z,8.90
2018-12-04T06:21:51.564Z,8.90
2018-12-04T06:22:51.705Z,8.88
2018-12-04T06:23:51.833Z,8.87
2018-12-04T06:24:51.989Z,8.90
2018-12-04T06:25:52.109Z,8.88
2018-12-04T06:26:52.209Z,8.88
2018-12-04T06:27:52.310Z,8.88
2018-12-04T06:28:52.406Z,8.88
2018-12-04T06:29:52.475Z,8.86
2018-12-04T06:30:52.554Z,8.85
2018-12-04T06:31:52.611Z,8.85
2018-12-04T06:32:52.775Z,8.84
2018-12-04T06:33:52.863Z,8.85
2018-12-04T06:35:52.938Z,8.84
2018-12-04T06:36:52.993Z,8.84
2018-12-04T06:37:53.052Z,8.83
2018-12-04T06:38:53.155Z,8.84
2018-12-04T06:39:53.254Z,8.83
2018-12-04T06:40:53.319Z,8.83
2018-12-04T06:41:53.395Z,8.82
2018-12-04T06:42:53.467Z,8.81
2018-12-04T06:43:53.548Z,8.84
2018-12-04T06:44:53.613Z,8.83
2018-12-04T06:45:53.675Z,8.82
2018-12-04T06:46:53.767Z,8.82
2018-12-04T06:47:53.741Z,8.82
2018-12-04T06:48:54.226Z,8.82
2018-12-04T06:49:54.310Z,8.80
2018-12-04T06:50:54.419Z,8.81
2018-12-04T06:51:54.421Z,8.80
2018-12-04T06:52:54.817Z,8.83
2018-12-04T06:53:55.338Z,8.82
2018-12-04T06:54:55.159Z,8.83
2018-12-04T06:55:55.421Z,8.83
2018-12-04T06:56:55.808Z,8.83
2018-12-04T06:57:56.106Z,8.84
2018-12-04T06:58:56.394Z,8.84
2018-12-04T06:59:56.684Z,8.85
2018-12-04T07:00:56.966Z,8.83
2018-12-04T07:01:57.362Z,8.83
2018-12-04T07:02:57.883Z,8.83
2018-12-04T07:03:57.634Z,8.83
2018-12-04T07:04:58.121Z,8.84
2018-12-04T07:05:58.620Z,8.85
2018-12-04T07:06:59.083Z,8.85
2018-12-04T07:07:59.363Z,8.85
2018-12-04T07:08:59.631Z,8.86
2018-12-04T07:09:59.923Z,8.86
2018-12-04T07:11:00.209Z,8.88
2018-12-04T07:12:02.614Z,8.87
2018-12-04T07:13:01.179Z,8.86
2018-12-04T07:14:00.968Z,8.88
2018-12-04T07:15:01.558Z,8.88
2018-12-04T07:16:01.463Z,8.86
2018-12-04T07:17:01.871Z,8.88
2018-12-04T07:18:02.504Z,8.88
2018-12-04T07:19:02.618Z,8.88
2018-12-04T07:20:02.741Z,8.90
2018-12-04T07:21:02.872Z,8.89
2018-12-04T07:22:02.930Z,8.88
2018-12-04T07:23:03.041Z,8.89
2018-12-04T07:24:03.197Z,8.89
2018-12-04T07:25:03.373Z,8.89
2018-12-04T07:26:03.445Z,8.88
2018-12-04T07:27:03.593Z,8.90
2018-12-04T07:28:03.659Z,8.91
2018-12-04T07:29:03.748Z,8.90
2018-12-04T07:30:03.826Z,8.92
2018-12-04T07:31:04.341Z,8.91
2018-12-04T07:32:04.545Z,8.92
2018-12-04T07:33:04.655Z,8.92
2018-12-04T07:34:04.791Z,8.91
2018-12-04T07:35:04.941Z,8.92
2018-12-04T07:36:05.296Z,8.93
2018-12-04T07:37:05.426Z,8.92
2018-12-04T07:38:05.575Z,8.93
2018-12-04T07:39:05.719Z,8.94
2018-12-04T07:40:05.911Z,8.92
2018-12-04T07:41:06.005Z,8.93
2018-12-04T07:42:06.093Z,8.93
2018-12-04T07:43:06.247Z,8.93
2018-12-04T07:44:06.397Z,8.93
2018-12-04T07:45:06.479Z,8.94
2018-12-04T07:47:06.664Z,8.94
2018-12-04T07:48:06.795Z,8.94
2018-12-04T07:49:06.990Z,8.94
2018-12-04T07:50:07.080Z,8.97
2018-12-04T07:51:07.150Z,8.96
2018-12-04T07:52:07.175Z,8.96
2018-12-04T07:53:07.294Z,8.97
2018-12-04T07:54:07.491Z,8.98
2018-12-04T07:55:07.568Z,8.99
2018-12-04T07:56:07.405Z,9.00
2018-12-04T07:57:07.970Z,9.00
2018-12-04T07:58:07.919Z,8.99
2018-12-04T07:59:08.489Z,8.98
2018-12-04T08:00:08.584Z,9.00
2018-12-04T08:01:08.377Z,9.01
2018-12-04T08:02:09.159Z,9.01
2018-12-04T08:03:09.307Z,9.01
2018-12-04T08:04:09.265Z,9.04
2018-12-04T08:05:09.556Z,9.04
2018-12-04T08:06:09.849Z,9.04
2018-12-04T08:07:10.304Z,9.03
2018-12-04T08:08:10.073Z,9.00
2018-12-04T08:09:10.682Z,9.01
2018-12-04T08:10:10.531Z,8.96
2018-12-04T08:11:10.895Z,9.00
2018-12-04T08:12:11.239Z,8.98
2018-12-04T08:13:11.740Z,8.98
2018-12-04T08:14:12.127Z,9.00
2018-12-04T08:15:12.601Z,8.95
2018-12-04T08:16:13.038Z,8.96
2018-12-04T08:17:13.316Z,8.99
2018-12-04T08:18:13.879Z,9.00
2018-12-04T08:19:13.796Z,9.02
2018-12-04T08:20:14.336Z,9.04
2018-12-04T08:21:14.104Z,9.05
2018-12-04T08:22:14.586Z,9.06
2018-12-04T08:23:14.882Z,9.08
2018-12-04T08:24:15.244Z,9.08
2018-12-04T08:25:15.911Z,9.10
2018-12-04T08:26:15.697Z,9.12
2018-12-04T08:27:16.072Z,9.13
2018-12-04T08:28:16.248Z,9.14
2018-12-04T08:29:16.666Z,9.16
2018-12-04T08:30:17.290Z,9.17
2018-12-04T08:31:17.137Z,9.18
2018-12-04T08:32:17.395Z,9.20
2018-12-04T08:33:17.762Z,9.21
2018-12-04T08:34:21.352Z,9.22
2018-12-04T08:35:18.398Z,9.23
2018-12-04T08:36:18.498Z,9.24
2018-12-04T08:37:18.683Z,9.25
2018-12-04T08:38:18.798Z,9.26
2018-12-04T08:39:18.982Z,9.28
2018-12-04T08:40:19.092Z,9.29
2018-12-04T08:41:19.200Z,9.30
2018-12-04T08:42:19.357Z,9.31
2018-12-04T08:43:19.510Z,9.31
2018-12-04T08:44:19.781Z,9.29
2018-12-04T08:45:19.936Z,9.31
2018-12-04T08:46:20.106Z,9.31
2018-12-04T08:47:20.269Z,9.30
2018-12-04T08:48:20.395Z,9.30
2018-12-04T08:49:20.530Z,9.30
2018-12-04T08:50:20.690Z,9.31
2018-12-04T08:51:20.818Z,9.32
2018-12-04T08:52:20.906Z,9.33
2018-12-04T08:53:20.963Z,9.33
2018-12-04T08:54:21.118Z,9.34
2018-12-04T08:55:21.267Z,9.34
2018-12-04T08:56:21.367Z,9.35
2018-12-04T08:57:21.450Z,9.36
2018-12-04T08:58:21.561Z,9.37
2018-12-04T08:59:21.629Z,9.39
2018-12-04T09:00:21.715Z,9.40
2018-12-04T09:01:21.887Z,9.42
2018-12-04T09:02:22.003Z,9.44
2018-12-04T09:03:22.100Z,9.46
2018-12-04T09:04:22.418Z,9.49
2018-12-04T09:05:22.623Z,9.52
2018-12-04T09:06:22.591Z,9.54
2018-12-04T09:07:22.795Z,9.56
2018-12-04T09:08:22.882Z,9.58
2018-12-04T09:09:22.971Z,9.59
2018-12-04T09:10:23.072Z,9.61
2018-12-04T09:11:23.205Z,9.62
2018-12-04T09:12:23.484Z,9.65
2018-12-04T09:13:23.629Z,9.67
2018-12-04T09:14:23.744Z,9.68
2018-12-04T09:15:26.554Z,9.70
2018-12-04T09:16:24.081Z,9.72
2018-12-04T09:17:24.113Z,9.74
2018-12-04T09:18:24.031Z,9.75
2018-12-04T09:19:24.599Z,9.77
2018-12-04T09:20:24.415Z,9.79
2018-12-04T09:21:24.788Z,9.82
2018-12-04T09:22:25.000Z,9.84
2018-12-04T09:23:25.314Z,9.86
2018-12-04T09:24:30.710Z,9.88
2018-12-04T09:25:25.969Z,9.90
2018-12-04T09:26:26.280Z,9.92
2018-12-04T09:27:26.835Z,9.94
2018-12-04T09:28:26.801Z,9.96
2018-12-04T09:29:27.099Z,9.97
2018-12-04T09:30:27.372Z,9.97
2018-12-04T09:31:27.685Z,9.97
2018-12-04T09:32:28.000Z,9.96
2018-12-04T09:33:28.441Z,9.95
2018-12-04T09:34:29.906Z,9.95
2018-12-04T09:35:29.027Z,9.96
2018-12-04T09:36:29.423Z,9.96
2018-12-04T09:37:29.698Z,9.97
2018-12-04T09:38:29.988Z,9.97
2018-12-04T09:39:30.272Z,9.98
2018-12-04T09:40:30.554Z,10.00
2018-12-04T09:41:30.830Z,10.01
2018-12-04T09:42:31.111Z,10.03
2018-12-04T09:43:31.399Z,10.02
2018-12-04T09:44:31.672Z,10.03
2018-12-04T09:45:31.959Z,10.03
2018-12-04T09:46:32.221Z,10.03
2018-12-04T09:47:32.609Z,10.03
2018-12-04T09:48:32.884Z,10.04
2018-12-04T09:49:33.458Z,10.03
2018-12-04T09:50:33.576Z,10.04
2018-12-04T09:51:33.683Z,10.05
2018-12-04T09:52:33.805Z,10.06
2018-12-04T09:53:34.008Z,10.07
2018-12-04T09:54:34.160Z,10.08
2018-12-04T09:55:34.316Z,10.08
2018-12-04T09:56:34.449Z,10.11
2018-12-04T09:57:34.637Z,10.13
2018-12-04T09:58:34.682Z,10.15
2018-12-04T09:59:39.450Z,10.17
2018-12-04T10:00:34.935Z,10.20
2018-12-04T10:01:35.105Z,10.22
2018-12-04T10:02:35.242Z,10.24
2018-12-04T10:03:35.418Z,10.26
2018-12-04T10:04:35.593Z,10.26
2018-12-04T10:05:35.756Z,10.27
2018-12-04T10:06:35.851Z,10.29
2018-12-04T10:07:35.979Z,10.31
2018-12-04T10:08:36.086Z,10.33
2018-12-04T10:09:36.242Z,10.36
2018-12-04T10:10:36.329Z,10.38
2018-12-04T10:11:36.537Z,10.40
2018-12-04T10:12:36.729Z,10.42
2018-12-04T10:13:36.843Z,10.43
2018-12-04T10:15:36.962Z,10.44
2018-12-04T10:16:37.074Z,10.44
2018-12-04T10:17:36.979Z,10.45
2018-12-04T10:18:37.655Z,10.45
2018-12-04T10:19:37.674Z,10.45
2018-12-04T10:20:37.744Z,10.46
2018-12-04T10:21:37.798Z,10.46
2018-12-04T10:22:37.907Z,10.47
2018-12-04T10:23:38.017Z,10.47
2018-12-04T10:24:38.131Z,10.46
2018-12-04T10:25:38.246Z,10.44
2018-12-04T10:26:38.345Z,10.43
2018-12-04T10:27:38.437Z,10.40
2018-12-04T10:28:38.573Z,10.38
2018-12-04T10:29:38.672Z,10.37
2018-12-04T10:30:38.745Z,10.36
2018-12-04T10:31:38.830Z,10.35
2018-12-04T10:32:38.897Z,10.34
2018-12-04T10:33:38.885Z,10.32
2018-12-04T10:34:39.499Z,10.30
2018-12-04T10:35:39.667Z,10.27
2018-12-04T10:36:39.865Z,10.25
2018-12-04T10:37:39.691Z,10.23
2018-12-04T10:38:40.072Z,10.21
2018-12-04T10:39:40.415Z,10.20
2018-12-04T10:40:40.706Z,10.19
2018-12-04T10:41:41.083Z,10.17
2018-12-04T10:42:41.401Z,10.16
2018-12-04T10:43:41.687Z,10.16
2018-12-04T10:44:41.978Z,10.15
2018-12-04T10:45:42.377Z,10.16
2018-12-04T10:46:42.662Z,10.16
2018-12-04T10:47:42.928Z,10.17
2018-12-04T10:48:43.269Z,10.19
2018-12-04T10:49:43.543Z,10.21
2018-12-04T10:50:43.829Z,10.22
2018-12-04T10:51:44.337Z,10.23
2018-12-04T10:52:44.799Z,10.25
2018-12-04T10:53:45.107Z,10.27
2018-12-04T10:54:45.380Z,10.27
2018-12-04T10:55:45.797Z,10.27
2018-12-04T10:56:46.056Z,10.28
2018-12-04T10:57:46.335Z,10.29
2018-12-04T10:58:46.625Z,10.29
2018-12-04T10:59:46.959Z,10.30
2018-12-04T11:00:47.260Z,10.31
2018-12-04T11:01:47.839Z,10.30
2018-12-04T11:02:47.727Z,10.31
2018-12-04T11:03:48.441Z,10.32
2018-12-04T11:04:48.545Z,10.35
2018-12-04T11:05:48.703Z,10.36
2018-12-04T11:06:48.870Z,10.36
2018-12-04T11:07:48.972Z,10.36
2018-12-04T11:08:51.799Z,10.37
2018-12-04T11:09:49.412Z,10.37
2018-12-04T11:10:49.547Z,10.38
2018-12-04T11:11:49.744Z,10.40
2018-12-04T11:12:49.882Z,10.42
2018-12-04T11:13:50.037Z,10.45
2018-12-04T11:14:50.273Z,10.49
2018-12-04T11:15:50.373Z,10.53
2018-12-04T11:16:50.520Z,10.56
2018-12-04T11:17:50.683Z,10.60
2018-12-04T11:18:50.821Z,10.63
2018-12-04T11:19:50.996Z,10.67
2018-12-04T11:20:51.099Z,10.71
2018-12-04T11:21:51.186Z,10.76
2018-12-04T11:22:51.289Z,10.84
2018-12-04T11:23:51.375Z,10.89
2018-12-04T11:24:51.446Z,10.94
2018-12-04T11:25:51.552Z,10.98
2018-12-04T11:26:51.617Z,11.04
2018-12-04T11:27:51.767Z,11.10
2018-12-04T11:28:51.881Z,11.18
2018-12-04T11:30:52.019Z,11.29
2018-12-04T11:31:52.200Z,11.32
2018-12-04T11:32:52.294Z,11.34
2018-12-04T11:33:52.408Z,11.34
2018-12-04T11:34:52.460Z,11.33
2018-12-04T11:35:52.542Z,11.30
2018-12-04T11:36:52.636Z,11.11
2018-12-04T11:37:52.755Z,11.04
2018-12-04T11:38:52.861Z,11.01
2018-12-04T11:39:52.937Z,10.99
2018-12-04T11:40:53.020Z,10.86
2018-12-04T11:41:53.093Z,10.83
2018-12-04T11:42:53.201Z,10.82
2018-12-04T11:43:53.271Z,10.82
2018-12-04T11:44:53.341Z,10.81
2018-12-04T11:45:53.426Z,10.84
2018-12-04T11:46:53.526Z,10.89
2018-12-04T11:47:53.634Z,10.96
2018-12-04T11:48:53.739Z,11.10
2018-12-04T11:49:53.854Z,11.24
2018-12-04T11:50:59.920Z,11.38
2018-12-04T11:51:54.290Z,11.53
2018-12-04T11:52:54.411Z,11.64
2018-12-04T11:53:54.333Z,11.67
2018-12-04T11:54:54.652Z,11.77
2018-12-04T11:55:54.951Z,11.90
2018-12-04T11:56:55.258Z,12.04
2018-12-04T11:57:55.638Z,12.17
2018-12-04T11:58:55.937Z,12.27
2018-12-04T11:59:56.454Z,12.31
2018-12-04T12:00:56.330Z,12.33
2018-12-04T12:01:56.608Z,12.36
2018-12-04T12:02:56.898Z,12.35
2018-12-04T12:03:57.181Z,12.16
2018-12-04T12:04:57.479Z,12.15
2018-12-04T12:05:57.747Z,12.13
2018-12-04T12:06:57.992Z,12.11
2018-12-04T12:07:58.281Z,12.09
2018-12-04T12:08:58.598Z,12.05
2018-12-04T12:09:58.887Z,11.87
2018-12-04T12:10:59.166Z,11.90
2018-12-04T12:11:59.962Z,12.01
2018-12-04T12:12:59.766Z,12.17
2018-12-04T12:14:00.057Z,12.32
2018-12-04T12:15:00.348Z,12.47
2018-12-04T12:16:00.919Z,12.60
2018-12-04T12:17:00.796Z,12.74
2018-12-04T12:18:01.403Z,12.87
2018-12-04T12:19:01.400Z,12.96
2018-12-04T12:20:01.459Z,13.04
2018-12-04T12:21:01.697Z,13.08
2018-12-04T12:22:01.618Z,12.99
2018-12-04T12:23:02.102Z,12.87
2018-12-04T12:24:02.687Z,12.41
2018-12-04T12:25:02.696Z,12.39
2018-12-04T12:26:02.997Z,12.34
2018-12-04T12:27:03.135Z,12.30
2018-12-04T12:28:03.280Z,12.26
2018-12-04T12:29:03.406Z,12.09
2018-12-04T12:30:03.561Z,12.08
2018-12-04T12:31:03.928Z,12.07
2018-12-04T12:32:04.041Z,12.17
2018-12-04T12:33:04.157Z,12.29
2018-12-04T12:34:04.304Z,12.47
2018-12-04T12:35:04.041Z,13.20
2018-12-04T12:36:04.505Z,13.25
2018-12-04T12:37:05.163Z,13.41
2018-12-04T12:38:05.281Z,13.61
2018-12-04T12:39:05.388Z,13.74
2018-12-04T12:40:05.685Z,14.33
2018-12-04T12:41:06.125Z,14.32
2018-12-04T12:42:06.212Z,14.38
2018-12-04T12:43:06.347Z,14.48
2018-12-04T12:44:06.437Z,14.62
2018-12-04T12:45:06.477Z,14.37
2018-12-04T12:46:06.965Z,14.05
2018-12-04T12:47:07.064Z,14.11
2018-12-04T12:48:07.162Z,14.22
2018-12-04T12:49:07.176Z,14.28
2018-12-04T12:50:07.269Z,14.30
2018-12-04T12:51:07.408Z,14.37
2018-12-04T12:52:07.504Z,14.47
2018-12-04T12:53:07.379Z,14.55
2018-12-04T12:54:07.880Z,14.64
2018-12-04T12:55:08.446Z,14.91
2018-12-04T12:56:08.373Z,14.45
2018-12-04T12:57:08.872Z,14.14
2018-12-04T12:58:09.251Z,13.90
2018-12-04T13:00:09.593Z,13.80
2018-12-04T13:01:09.856Z,13.95
2018-12-04T13:02:10.195Z,14.12
2018-12-04T13:03:10.658Z,14.29
2018-12-04T13:04:10.941Z,14.97
2018-12-04T13:05:11.262Z,15.02
2018-12-04T13:06:11.527Z,15.11
2018-12-04T13:07:11.893Z,15.25
2018-12-04T13:08:12.164Z,15.40
2018-12-04T13:09:12.473Z,15.58
2018-12-04T13:10:12.793Z,16.21
2018-12-04T13:11:13.183Z,16.23
2018-12-04T13:12:13.622Z,16.45
2018-12-04T13:13:13.916Z,16.64
2018-12-04T13:14:14.195Z,16.87
2018-12-04T13:15:14.567Z,17.06
2018-12-04T13:16:14.972Z,17.19
2018-12-04T13:17:15.285Z,17.33